Blue Island, Illinois
Current Conditions -  °F | °C
As of 1:53 PM on Saturday 20 Dec 2014 (Local Time) from KMDW Reporting Station
Light Snow Light Snow  
Wind Chill: 27°   Ceiling: 2000
Heat Index: 34°   Visibility: 10mi
Dew Point: 25°   Wind: 9mph
Humidity: 70%   Direction: 240°WSW
Pressure: 30.24"   Gusts: NA
Location:  41.66°N, 87.68°W
Report Text: KMDW 201953Z 24008KT 10SM -SN BKN020 OVC065 01/M04 A3024 RMK AO2 SLP253 P0000 T00111039
Loading
Personal Weather Stations






























Interactive Weather Map New forecast layout! Learn more

10-Day Weather Forecast

Advertisements
Track Severe Weather on mobile